createdAt,value
2023-01-29T00:00:45.157Z,1022.66
2023-01-29T00:01:45.197Z,1022.64
2023-01-29T00:02:45.219Z,1022.60
2023-01-29T00:03:45.135Z,1022.62
2023-01-29T00:04:45.128Z,1022.58
2023-01-29T00:05:45.125Z,1022.53
2023-01-29T00:06:45.114Z,1022.59
2023-01-29T00:07:45.118Z,1022.56
2023-01-29T00:08:45.132Z,1022.53
2023-01-29T00:09:45.105Z,1022.58
2023-01-29T00:10:45.092Z,1022.59
2023-01-29T00:11:45.084Z,1022.52
2023-01-29T00:12:45.087Z,1022.53
2023-01-29T00:13:45.075Z,1022.53
2023-01-29T00:14:45.066Z,1022.52
2023-01-29T00:15:45.062Z,1022.57
2023-01-29T00:16:45.249Z,1022.56
2023-01-29T00:17:45.051Z,1022.53
2023-01-29T00:18:45.044Z,1022.55
2023-01-29T00:19:45.052Z,1022.56
2023-01-29T00:20:45.031Z,1022.52
2023-01-29T00:21:45.042Z,1022.57
2023-01-29T00:22:45.014Z,1022.53
2023-01-29T00:23:45.016Z,1022.46
2023-01-29T00:24:45.030Z,1022.47
2023-01-29T00:25:45.003Z,1022.48
2023-01-29T00:26:44.986Z,1022.51
2023-01-29T00:27:45.056Z,1022.50
2023-01-29T00:28:44.978Z,1022.51
2023-01-29T00:29:44.976Z,1022.50
2023-01-29T00:30:44.964Z,1022.42
2023-01-29T00:31:45.020Z,1022.46
2023-01-29T00:32:44.954Z,1022.41
2023-01-29T00:33:44.958Z,1022.41
2023-01-29T00:34:44.940Z,1022.42
2023-01-29T00:35:44.938Z,1022.40
2023-01-29T00:36:44.935Z,1022.35
2023-01-29T00:37:44.923Z,1022.33
2023-01-29T00:38:44.923Z,1022.33
2023-01-29T00:39:48.053Z,1022.32
2023-01-29T00:40:44.926Z,1022.31
2023-01-29T00:41:44.904Z,1022.29
2023-01-29T00:42:44.905Z,1022.32
2023-01-29T00:43:44.894Z,1022.27
2023-01-29T00:44:44.916Z,1022.29
2023-01-29T00:45:44.878Z,1022.29
2023-01-29T00:46:45.013Z,1022.31
2023-01-29T00:47:44.865Z,1022.22
2023-01-29T00:48:44.855Z,1022.20
2023-01-29T00:49:44.855Z,1022.17
2023-01-29T00:50:44.840Z,1022.11
2023-01-29T00:51:44.840Z,1022.18
2023-01-29T00:52:44.834Z,1022.12
2023-01-29T00:53:44.831Z,1022.16
2023-01-29T00:54:44.829Z,1022.15
2023-01-29T00:55:44.820Z,1022.14
2023-01-29T00:56:44.828Z,1022.12
2023-01-29T00:57:44.807Z,1022.13
2023-01-29T00:58:44.798Z,1022.13
2023-01-29T00:59:44.791Z,1022.11
2023-01-29T01:00:44.903Z,1022.13
2023-01-29T01:01:44.811Z,1022.12
2023-01-29T01:02:44.766Z,1022.11
2023-01-29T01:03:44.776Z,1022.14
2023-01-29T01:04:44.762Z,1022.22
2023-01-29T01:05:44.757Z,1022.22
2023-01-29T01:06:44.746Z,1022.23
2023-01-29T01:07:44.740Z,1022.20
2023-01-29T01:08:44.730Z,1022.19
2023-01-29T01:09:44.741Z,1022.19
2023-01-29T01:10:44.719Z,1022.17
2023-01-29T01:11:44.721Z,1022.18
2023-01-29T01:12:44.740Z,1022.20
2023-01-29T01:13:44.708Z,1022.20
2023-01-29T01:14:44.703Z,1022.21
2023-01-29T01:15:44.692Z,1022.22
2023-01-29T01:16:44.689Z,1022.23
2023-01-29T01:17:44.687Z,1022.23
2023-01-29T01:18:44.673Z,1022.20
2023-01-29T01:19:44.674Z,1022.24
2023-01-29T01:20:44.671Z,1022.26
2023-01-29T01:21:44.670Z,1022.28
2023-01-29T01:22:44.654Z,1022.30
2023-01-29T01:23:44.648Z,1022.26
2023-01-29T01:24:44.641Z,1022.27
2023-01-29T01:25:44.638Z,1022.20
2023-01-29T01:26:44.625Z,1022.24
2023-01-29T01:27:44.629Z,1022.20
2023-01-29T01:28:44.637Z,1022.22
2023-01-29T01:29:44.610Z,1022.25
2023-01-29T01:30:44.634Z,1022.25
2023-01-29T01:31:44.638Z,1022.20
2023-01-29T01:32:44.589Z,1022.12
2023-01-29T01:33:44.592Z,1022.18
2023-01-29T01:34:44.588Z,1022.13
2023-01-29T01:35:44.569Z,1022.19
2023-01-29T01:36:44.567Z,1022.18
2023-01-29T01:37:44.563Z,1022.17
2023-01-29T01:38:44.549Z,1022.11
2023-01-29T01:39:44.548Z,1022.08
2023-01-29T01:40:44.544Z,1022.11
2023-01-29T01:41:44.534Z,1022.25
2023-01-29T01:42:44.525Z,1022.24
2023-01-29T01:43:44.524Z,1022.32
2023-01-29T01:44:44.530Z,1022.28
2023-01-29T01:45:44.535Z,1022.28
2023-01-29T01:46:44.506Z,1022.25
2023-01-29T01:47:44.504Z,1022.23
2023-01-29T01:48:44.487Z,1022.21
2023-01-29T01:49:44.490Z,1022.23
2023-01-29T01:50:44.491Z,1022.21
2023-01-29T01:51:44.473Z,1022.24
2023-01-29T01:52:44.461Z,1022.24
2023-01-29T01:53:44.461Z,1022.25
2023-01-29T01:54:44.470Z,1022.26
2023-01-29T01:55:44.456Z,1022.29
2023-01-29T01:56:44.441Z,1022.19
2023-01-29T01:57:44.438Z,1022.23
2023-01-29T01:58:44.432Z,1022.23
2023-01-29T01:59:44.426Z,1022.23
2023-01-29T02:00:44.533Z,1022.22
2023-01-29T02:01:44.429Z,1022.18
2023-01-29T02:02:44.406Z,1022.18
2023-01-29T02:03:44.401Z,1022.17
2023-01-29T02:04:44.393Z,1022.08
2023-01-29T02:05:44.387Z,1022.12
2023-01-29T02:06:44.385Z,1022.05
2023-01-29T02:07:44.377Z,1022.03
2023-01-29T02:08:44.369Z,1022.05
2023-01-29T02:09:44.375Z,1022.09
2023-01-29T02:10:44.357Z,1022.07
2023-01-29T02:11:44.361Z,1022.04
2023-01-29T02:12:44.352Z,1022.08
2023-01-29T02:13:44.342Z,1022.04
2023-01-29T02:14:44.329Z,1022.05
2023-01-29T02:15:44.330Z,1021.99
2023-01-29T02:16:44.354Z,1022.04
2023-01-29T02:17:44.389Z,1021.96
2023-01-29T02:18:44.309Z,1021.94
2023-01-29T02:19:44.304Z,1022.00
2023-01-29T02:20:44.294Z,1021.96
2023-01-29T02:21:44.295Z,1021.94
2023-01-29T02:22:44.279Z,1021.99
2023-01-29T02:23:44.312Z,1021.92
2023-01-29T02:24:44.353Z,1021.93
2023-01-29T02:25:44.284Z,1021.92
2023-01-29T02:26:44.309Z,1021.92
2023-01-29T02:27:44.256Z,1021.92
2023-01-29T02:28:44.245Z,1021.95
2023-01-29T02:29:44.248Z,1021.91
2023-01-29T02:30:44.268Z,1021.93
2023-01-29T02:31:44.318Z,1021.88
2023-01-29T02:32:44.251Z,1021.86
2023-01-29T02:33:44.220Z,1021.83
2023-01-29T02:34:44.218Z,1021.85
2023-01-29T02:35:44.209Z,1021.81
2023-01-29T02:36:44.201Z,1021.87
2023-01-29T02:37:44.195Z,1021.82
2023-01-29T02:38:44.242Z,1021.81
2023-01-29T02:39:44.186Z,1021.80
2023-01-29T02:40:44.171Z,1021.79
2023-01-29T02:41:44.173Z,1021.84
2023-01-29T02:42:44.172Z,1021.86
2023-01-29T02:43:44.166Z,1021.89
2023-01-29T02:44:44.148Z,1021.94
2023-01-29T02:45:44.175Z,1021.94
2023-01-29T02:46:44.148Z,1021.94
2023-01-29T02:47:44.138Z,1021.93
2023-01-29T02:48:44.144Z,1021.91
2023-01-29T02:49:44.127Z,1021.90
2023-01-29T02:50:44.119Z,1021.88
2023-01-29T02:51:44.118Z,1021.80
2023-01-29T02:52:44.100Z,1021.80
2023-01-29T02:53:44.098Z,1021.82
2023-01-29T02:54:44.088Z,1021.82
2023-01-29T02:55:44.095Z,1021.77
2023-01-29T02:56:44.078Z,1021.73
2023-01-29T02:57:44.072Z,1021.73
2023-01-29T02:58:44.084Z,1021.74
2023-01-29T02:59:44.068Z,1021.70
2023-01-29T03:00:44.085Z,1021.67
2023-01-29T03:01:44.049Z,1021.68
2023-01-29T03:02:44.044Z,1021.69
2023-01-29T03:03:44.042Z,1021.67
2023-01-29T03:04:44.054Z,1021.68
2023-01-29T03:05:44.035Z,1021.69
2023-01-29T03:06:44.027Z,1021.72
2023-01-29T03:07:44.017Z,1021.70
2023-01-29T03:08:44.004Z,1021.67
2023-01-29T03:09:44.003Z,1021.68
2023-01-29T03:10:44.000Z,1021.64
2023-01-29T03:11:43.995Z,1021.66
2023-01-29T03:12:43.985Z,1021.69
2023-01-29T03:13:43.976Z,1021.66
2023-01-29T03:14:43.970Z,1021.65
2023-01-29T03:15:43.964Z,1021.62
2023-01-29T03:16:44.013Z,1021.63
2023-01-29T03:17:43.954Z,1021.58
2023-01-29T03:18:43.942Z,1021.57
2023-01-29T03:19:43.942Z,1021.60
2023-01-29T03:20:43.952Z,1021.54
2023-01-29T03:21:43.927Z,1021.53
2023-01-29T03:22:43.921Z,1021.50
2023-01-29T03:23:43.917Z,1021.54
2023-01-29T03:24:43.913Z,1021.54
2023-01-29T03:25:43.909Z,1021.51
2023-01-29T03:26:43.898Z,1021.55
2023-01-29T03:27:43.900Z,1021.51
2023-01-29T03:28:43.886Z,1021.52
2023-01-29T03:29:43.883Z,1021.52
2023-01-29T03:30:43.871Z,1021.55
2023-01-29T03:31:43.991Z,1021.57
2023-01-29T03:32:43.860Z,1021.58
2023-01-29T03:33:43.854Z,1021.59
2023-01-29T03:34:43.848Z,1021.60
2023-01-29T03:35:43.850Z,1021.52
2023-01-29T03:36:43.863Z,1021.50
2023-01-29T03:37:43.833Z,1021.50
2023-01-29T03:38:43.841Z,1021.48
2023-01-29T03:39:43.821Z,1021.40
2023-01-29T03:40:43.808Z,1021.40
2023-01-29T03:41:43.808Z,1021.34
2023-01-29T03:42:43.804Z,1021.30
2023-01-29T03:43:43.800Z,1021.30
2023-01-29T03:44:43.791Z,1021.30
2023-01-29T03:45:43.864Z,1021.33
2023-01-29T03:46:43.782Z,1021.33
2023-01-29T03:47:43.773Z,1021.30
2023-01-29T03:48:43.760Z,1021.26
2023-01-29T03:49:43.761Z,1021.28
2023-01-29T03:50:43.755Z,1021.25
2023-01-29T03:51:43.750Z,1021.27
2023-01-29T03:52:43.738Z,1021.22
2023-01-29T03:53:43.749Z,1021.20
2023-01-29T03:54:43.739Z,1021.23
2023-01-29T03:55:43.752Z,1021.18
2023-01-29T03:56:43.717Z,1021.20
2023-01-29T03:57:43.713Z,1021.15
2023-01-29T03:58:43.702Z,1021.14
2023-01-29T03:59:43.700Z,1021.14
2023-01-29T04:00:43.689Z,1021.05
2023-01-29T04:01:43.709Z,1021.04
2023-01-29T04:02:43.677Z,1021.03
2023-01-29T04:03:43.738Z,1020.98
2023-01-29T04:04:43.672Z,1020.99
2023-01-29T04:05:43.664Z,1020.95
2023-01-29T04:06:43.650Z,1020.91
2023-01-29T04:07:43.653Z,1020.98
2023-01-29T04:08:43.641Z,1020.93
2023-01-29T04:09:43.640Z,1020.94
2023-01-29T04:10:43.632Z,1020.97
2023-01-29T04:11:43.627Z,1020.93
2023-01-29T04:12:43.617Z,1020.90
2023-01-29T04:13:43.618Z,1020.89
2023-01-29T04:14:43.607Z,1020.86
2023-01-29T04:15:43.604Z,1020.86
2023-01-29T04:16:43.629Z,1020.84
2023-01-29T04:17:43.601Z,1020.81
2023-01-29T04:18:43.587Z,1020.71
2023-01-29T04:19:43.575Z,1020.76
2023-01-29T04:20:43.574Z,1020.72
2023-01-29T04:21:43.570Z,1020.73
2023-01-29T04:22:43.558Z,1020.69
2023-01-29T04:23:43.550Z,1020.65
2023-01-29T04:24:43.548Z,1020.61
2023-01-29T04:25:43.543Z,1020.56
2023-01-29T04:26:43.549Z,1020.54
2023-01-29T04:27:43.528Z,1020.54
2023-01-29T04:28:43.523Z,1020.54
2023-01-29T04:29:43.537Z,1020.56
2023-01-29T04:30:43.616Z,1020.57
2023-01-29T04:31:43.559Z,1020.50
2023-01-29T04:32:43.499Z,1020.55
2023-01-29T04:33:43.491Z,1020.54
2023-01-29T04:34:43.492Z,1020.48
2023-01-29T04:35:43.486Z,1020.50
2023-01-29T04:36:43.476Z,1020.50
2023-01-29T04:37:43.464Z,1020.53
2023-01-29T04:38:43.467Z,1020.45
2023-01-29T04:39:43.458Z,1020.46
2023-01-29T04:40:43.462Z,1020.42
2023-01-29T04:41:43.448Z,1020.38
2023-01-29T04:42:43.439Z,1020.39
2023-01-29T04:43:43.433Z,1020.39
2023-01-29T04:44:43.423Z,1020.42
2023-01-29T04:45:43.416Z,1020.44
2023-01-29T04:46:43.417Z,1020.46
2023-01-29T04:47:43.498Z,1020.45
2023-01-29T04:48:43.422Z,1020.44
2023-01-29T04:49:43.399Z,1020.45
2023-01-29T04:50:43.395Z,1020.48
2023-01-29T04:51:43.381Z,1020.49
2023-01-29T04:52:43.383Z,1020.51
2023-01-29T04:53:43.369Z,1020.51
2023-01-29T04:54:43.367Z,1020.50
2023-01-29T04:55:43.357Z,1020.54
2023-01-29T04:56:43.356Z,1020.58
2023-01-29T04:57:43.358Z,1020.55
2023-01-29T04:58:43.348Z,1020.53
2023-01-29T04:59:43.339Z,1020.50
2023-01-29T05:00:43.327Z,1020.52
2023-01-29T05:01:43.420Z,1020.57
2023-01-29T05:02:43.376Z,1020.57
2023-01-29T05:03:43.315Z,1020.52
2023-01-29T05:04:43.306Z,1020.52
2023-01-29T05:05:43.297Z,1020.47
2023-01-29T05:06:43.292Z,1020.50
2023-01-29T05:07:43.291Z,1020.54
2023-01-29T05:08:43.284Z,1020.43
2023-01-29T05:09:43.271Z,1020.48
2023-01-29T05:10:43.273Z,1020.49
2023-01-29T05:11:43.266Z,1020.53
2023-01-29T05:12:43.260Z,1020.58
2023-01-29T05:13:43.250Z,1020.56
2023-01-29T05:14:43.246Z,1020.61
2023-01-29T05:15:43.295Z,1020.66
2023-01-29T05:16:43.231Z,1020.65
2023-01-29T05:17:43.228Z,1020.63
2023-01-29T05:18:43.222Z,1020.62
2023-01-29T05:19:43.219Z,1020.61
2023-01-29T05:20:43.209Z,1020.57
2023-01-29T05:21:43.207Z,1020.57
2023-01-29T05:22:43.197Z,1020.55
2023-01-29T05:23:43.193Z,1020.59
2023-01-29T05:24:43.186Z,1020.59
2023-01-29T05:25:43.178Z,1020.64
2023-01-29T05:26:43.172Z,1020.65
2023-01-29T05:27:43.162Z,1020.63
2023-01-29T05:28:43.163Z,1020.66
2023-01-29T05:29:43.155Z,1020.65
2023-01-29T05:30:43.158Z,1020.65
2023-01-29T05:31:43.156Z,1020.63
2023-01-29T05:32:43.139Z,1020.66
2023-01-29T05:33:43.126Z,1020.63
2023-01-29T05:34:43.126Z,1020.61
2023-01-29T05:35:43.118Z,1020.62
2023-01-29T05:36:43.115Z,1020.65
2023-01-29T05:37:43.108Z,1020.65
2023-01-29T05:38:43.096Z,1020.62
2023-01-29T05:39:43.091Z,1020.62
2023-01-29T05:40:43.087Z,1020.60
2023-01-29T05:41:43.082Z,1020.68
2023-01-29T05:42:43.078Z,1020.65
2023-01-29T05:43:43.064Z,1020.64
2023-01-29T05:44:43.087Z,1020.62
2023-01-29T05:45:43.057Z,1020.62
2023-01-29T05:46:43.072Z,1020.61
2023-01-29T05:47:43.046Z,1020.59
2023-01-29T05:48:43.039Z,1020.61
2023-01-29T05:49:43.028Z,1020.60
2023-01-29T05:50:43.031Z,1020.60
2023-01-29T05:51:43.021Z,1020.63
2023-01-29T05:52:43.015Z,1020.58
2023-01-29T05:53:43.005Z,1020.61
2023-01-29T05:54:43.000Z,1020.61
2023-01-29T05:55:43.010Z,1020.66
2023-01-29T05:56:42.998Z,1020.69
2023-01-29T05:57:42.984Z,1020.72
2023-01-29T05:58:42.976Z,1020.72
2023-01-29T05:59:42.966Z,1020.74
2023-01-29T06:00:42.968Z,1020.71
2023-01-29T06:01:42.982Z,1020.71
2023-01-29T06:02:42.977Z,1020.77
2023-01-29T06:03:42.951Z,1020.77
2023-01-29T06:04:42.954Z,1020.75
2023-01-29T06:05:42.937Z,1020.77
2023-01-29T06:06:42.932Z,1020.78
2023-01-29T06:07:43.804Z,1020.79
2023-01-29T06:08:42.924Z,1020.77
2023-01-29T06:09:42.908Z,1020.79
2023-01-29T06:10:42.914Z,1020.83
2023-01-29T06:11:42.898Z,1020.83
2023-01-29T06:12:42.891Z,1020.87
2023-01-29T06:13:42.887Z,1020.82
2023-01-29T06:14:42.885Z,1020.84
2023-01-29T06:15:42.874Z,1020.83
2023-01-29T06:16:42.869Z,1020.85
2023-01-29T06:17:42.927Z,1020.81
2023-01-29T06:18:42.861Z,1020.84
2023-01-29T06:19:43.173Z,1020.86
2023-01-29T06:20:42.840Z,1020.82
2023-01-29T06:21:42.848Z,1020.84
2023-01-29T06:22:42.842Z,1020.86
2023-01-29T06:23:42.825Z,1020.88
2023-01-29T06:24:42.820Z,1020.85
2023-01-29T06:25:42.846Z,1020.80
2023-01-29T06:26:42.812Z,1020.85
2023-01-29T06:27:42.802Z,1020.85
2023-01-29T06:28:42.800Z,1020.77
2023-01-29T06:29:42.791Z,1020.82
2023-01-29T06:30:42.804Z,1020.88
2023-01-29T06:31:42.981Z,1020.85
2023-01-29T06:32:42.815Z,1020.80
2023-01-29T06:33:42.764Z,1020.71
2023-01-29T06:34:42.761Z,1020.70
2023-01-29T06:35:42.754Z,1020.67
2023-01-29T06:36:42.752Z,1020.70
2023-01-29T06:37:42.742Z,1020.73
2023-01-29T06:38:42.738Z,1020.74
2023-01-29T06:39:42.725Z,1020.77
2023-01-29T06:40:42.724Z,1020.72
2023-01-29T06:41:42.715Z,1020.72
2023-01-29T06:42:44.672Z,1020.71
2023-01-29T06:43:42.704Z,1020.77
2023-01-29T06:44:42.717Z,1020.82
2023-01-29T06:45:42.739Z,1020.81
2023-01-29T06:46:42.688Z,1020.82
2023-01-29T06:47:42.678Z,1020.86
2023-01-29T06:48:42.679Z,1020.81
2023-01-29T06:49:42.667Z,1020.82
2023-01-29T06:50:42.669Z,1020.85
2023-01-29T06:51:42.656Z,1020.80
2023-01-29T06:52:42.653Z,1020.77
2023-01-29T06:53:44.740Z,1020.75
2023-01-29T06:54:42.638Z,1020.74
2023-01-29T06:55:42.633Z,1020.78
2023-01-29T06:56:42.626Z,1020.87
2023-01-29T06:57:42.622Z,1020.90
2023-01-29T06:58:42.618Z,1020.94
2023-01-29T06:59:42.611Z,1020.91
2023-01-29T07:00:42.635Z,1020.97
2023-01-29T07:01:42.756Z,1020.93
2023-01-29T07:02:42.597Z,1020.93
2023-01-29T07:03:42.584Z,1020.92
2023-01-29T07:04:42.581Z,1020.93
2023-01-29T07:05:42.569Z,1020.95
2023-01-29T07:06:42.568Z,1020.89
2023-01-29T07:07:42.566Z,1020.89
2023-01-29T07:08:42.551Z,1020.86
2023-01-29T07:09:42.551Z,1020.85
2023-01-29T07:10:42.547Z,1020.83
2023-01-29T07:11:42.537Z,1020.79
2023-01-29T07:12:42.532Z,1020.75
2023-01-29T07:13:42.532Z,1020.79
2023-01-29T07:14:42.523Z,1020.85
2023-01-29T07:15:42.514Z,1020.85
2023-01-29T07:16:42.593Z,1020.87
2023-01-29T07:17:42.500Z,1020.81
2023-01-29T07:18:42.501Z,1020.80
2023-01-29T07:19:42.492Z,1020.74
2023-01-29T07:20:42.482Z,1020.67
2023-01-29T07:21:42.476Z,1020.68
2023-01-29T07:22:42.475Z,1020.62
2023-01-29T07:23:42.469Z,1020.59
2023-01-29T07:24:42.465Z,1020.59
2023-01-29T07:25:42.456Z,1020.65
2023-01-29T07:26:42.447Z,1020.67
2023-01-29T07:27:42.443Z,1020.67
2023-01-29T07:28:42.465Z,1020.65
2023-01-29T07:29:42.426Z,1020.70
2023-01-29T07:30:42.421Z,1020.78
2023-01-29T07:31:42.553Z,1020.88
2023-01-29T07:32:42.412Z,1020.93
2023-01-29T07:33:42.401Z,1020.90
2023-01-29T07:34:42.397Z,1020.85
2023-01-29T07:35:42.395Z,1020.79
2023-01-29T07:36:42.399Z,1020.73
2023-01-29T07:37:42.378Z,1020.72
2023-01-29T07:38:42.397Z,1020.77
2023-01-29T07:39:42.373Z,1020.74
2023-01-29T07:40:42.362Z,1020.72
2023-01-29T07:41:42.356Z,1020.65
2023-01-29T07:42:42.355Z,1020.69
2023-01-29T07:43:42.342Z,1020.63
2023-01-29T07:44:42.345Z,1020.61
2023-01-29T07:45:42.368Z,1020.60
2023-01-29T07:46:42.328Z,1020.62
2023-01-29T07:47:42.324Z,1020.68
2023-01-29T07:48:42.323Z,1020.63
2023-01-29T07:49:42.307Z,1020.64
2023-01-29T07:50:42.303Z,1020.60
2023-01-29T07:51:42.319Z,1020.56
2023-01-29T07:52:42.291Z,1020.53
2023-01-29T07:53:42.281Z,1020.54
2023-01-29T07:54:42.279Z,1020.46
2023-01-29T07:55:42.270Z,1020.45
2023-01-29T07:56:42.264Z,1020.39
2023-01-29T07:57:42.267Z,1020.46
2023-01-29T07:58:42.259Z,1020.44
2023-01-29T07:59:42.249Z,1020.45
2023-01-29T08:00:42.251Z,1020.48
2023-01-29T08:01:42.234Z,1020.46
2023-01-29T08:02:42.257Z,1020.39
2023-01-29T08:03:42.236Z,1020.45
2023-01-29T08:04:42.229Z,1020.41
2023-01-29T08:05:42.207Z,1020.45
2023-01-29T08:06:42.208Z,1020.47
2023-01-29T08:07:42.202Z,1020.49
2023-01-29T08:08:42.205Z,1020.46
2023-01-29T08:09:42.185Z,1020.44
2023-01-29T08:10:42.195Z,1020.39
2023-01-29T08:11:42.178Z,1020.42
2023-01-29T08:12:42.163Z,1020.37
2023-01-29T08:13:42.179Z,1020.38
2023-01-29T08:14:42.160Z,1020.34
2023-01-29T08:15:42.151Z,1020.33
2023-01-29T08:16:42.209Z,1020.37
2023-01-29T08:17:56.167Z,1020.29
2023-01-29T08:18:42.137Z,1020.33
2023-01-29T08:19:42.134Z,1020.38
2023-01-29T08:20:42.166Z,1020.35
2023-01-29T08:21:42.108Z,1020.44
2023-01-29T08:22:42.107Z,1020.35
2023-01-29T08:23:42.102Z,1020.41
2023-01-29T08:24:53.688Z,1020.37
2023-01-29T08:25:42.193Z,1020.35
2023-01-29T08:26:42.089Z,1020.38
2023-01-29T08:27:42.082Z,1020.39
2023-01-29T08:28:42.080Z,1020.38
2023-01-29T08:29:42.071Z,1020.39
2023-01-29T08:30:42.145Z,1020.38
2023-01-29T08:31:42.077Z,1020.38
2023-01-29T08:32:42.048Z,1020.43
2023-01-29T08:33:42.056Z,1020.38
2023-01-29T08:34:42.039Z,1020.39
2023-01-29T08:35:42.033Z,1020.36
2023-01-29T08:36:42.024Z,1020.30
2023-01-29T08:37:42.031Z,1020.29
2023-01-29T08:38:42.013Z,1020.30
2023-01-29T08:40:42.006Z,1020.32
2023-01-29T08:41:42.000Z,1020.35
2023-01-29T08:42:41.997Z,1020.39
2023-01-29T08:43:41.991Z,1020.40
2023-01-29T08:44:41.974Z,1020.35
2023-01-29T08:45:42.063Z,1020.39
2023-01-29T08:46:41.976Z,1020.39
2023-01-29T08:47:41.959Z,1020.40
2023-01-29T08:48:41.950Z,1020.37
2023-01-29T08:49:41.945Z,1020.38
2023-01-29T08:50:41.944Z,1020.43
2023-01-29T08:51:41.948Z,1020.42
2023-01-29T08:52:41.933Z,1020.42
2023-01-29T08:53:41.924Z,1020.44
2023-01-29T08:54:41.949Z,1020.40
2023-01-29T08:55:41.936Z,1020.42
2023-01-29T08:56:41.904Z,1020.37
2023-01-29T08:57:41.899Z,1020.41
2023-01-29T08:58:41.893Z,1020.38
2023-01-29T08:59:41.889Z,1020.29
2023-01-29T09:00:41.883Z,1020.23
2023-01-29T09:01:41.881Z,1020.23
2023-01-29T09:02:41.951Z,1020.26
2023-01-29T09:03:41.865Z,1020.29
2023-01-29T09:04:41.858Z,1020.32
2023-01-29T09:05:41.865Z,1020.24
2023-01-29T09:06:41.846Z,1020.23
2023-01-29T09:07:41.847Z,1020.24
2023-01-29T09:08:41.837Z,1020.21
2023-01-29T09:09:41.832Z,1020.26
2023-01-29T09:10:41.823Z,1020.27
2023-01-29T09:11:41.818Z,1020.25
2023-01-29T09:12:41.811Z,1020.19
2023-01-29T09:13:41.803Z,1020.18
2023-01-29T09:14:41.800Z,1020.18
2023-01-29T09:15:41.793Z,1020.15
2023-01-29T09:16:41.834Z,1020.20
2023-01-29T09:17:41.782Z,1020.16
2023-01-29T09:18:41.771Z,1020.20
2023-01-29T09:19:41.781Z,1020.23
2023-01-29T09:20:41.765Z,1020.19
2023-01-29T09:21:41.763Z,1020.17
2023-01-29T09:22:41.769Z,1020.16
2023-01-29T09:23:41.743Z,1020.26
2023-01-29T09:24:41.739Z,1020.24
2023-01-29T09:25:41.739Z,1020.24
2023-01-29T09:26:41.862Z,1020.28
2023-01-29T09:27:41.741Z,1020.31
2023-01-29T09:28:41.725Z,1020.34
2023-01-29T09:29:41.717Z,1020.38
2023-01-29T09:30:41.795Z,1020.42
2023-01-29T09:31:41.830Z,1020.40
2023-01-29T09:32:56.977Z,1020.35
2023-01-29T09:33:41.687Z,1020.34
2023-01-29T09:34:41.691Z,1020.36
2023-01-29T09:35:41.685Z,1020.41
2023-01-29T09:36:41.672Z,1020.36
2023-01-29T09:37:41.666Z,1020.36
2023-01-29T09:38:41.658Z,1020.30
2023-01-29T09:39:41.663Z,1020.30
2023-01-29T09:40:41.643Z,1020.22
2023-01-29T09:41:41.655Z,1020.16
2023-01-29T09:42:41.635Z,1020.13
2023-01-29T09:43:41.629Z,1020.16
2023-01-29T09:44:41.643Z,1020.13
2023-01-29T09:45:41.637Z,1020.09
2023-01-29T09:46:41.618Z,1020.07
2023-01-29T09:47:41.611Z,1020.09
2023-01-29T09:48:41.601Z,1020.07
2023-01-29T09:49:41.617Z,1020.01
2023-01-29T09:50:41.603Z,1020.05
2023-01-29T09:51:41.589Z,1019.99
2023-01-29T09:52:41.594Z,1019.99
2023-01-29T09:53:41.572Z,1019.94
2023-01-29T09:54:41.577Z,1019.97
2023-01-29T09:55:41.580Z,1019.93
2023-01-29T09:56:41.560Z,1019.94
2023-01-29T09:57:41.551Z,1019.88
2023-01-29T09:58:41.559Z,1019.92
2023-01-29T09:59:41.548Z,1019.91
2023-01-29T10:00:41.529Z,1019.90
2023-01-29T10:01:41.651Z,1019.87
2023-01-29T10:02:41.528Z,1019.89
2023-01-29T10:03:41.519Z,1019.89
2023-01-29T10:04:41.593Z,1019.84
2023-01-29T10:05:41.513Z,1019.86
2023-01-29T10:06:41.509Z,1019.88
2023-01-29T10:07:41.493Z,1019.85
2023-01-29T10:08:41.484Z,1019.88
2023-01-29T10:09:41.492Z,1019.83
2023-01-29T10:10:41.475Z,1019.83
2023-01-29T10:11:41.470Z,1019.80
2023-01-29T10:12:41.464Z,1019.76
2023-01-29T10:13:41.464Z,1019.73
2023-01-29T10:14:41.455Z,1019.73
2023-01-29T10:15:41.459Z,1019.66
2023-01-29T10:16:41.605Z,1019.60
2023-01-29T10:17:41.449Z,1019.60
2023-01-29T10:18:41.437Z,1019.54
2023-01-29T10:19:41.429Z,1019.53
2023-01-29T10:20:41.431Z,1019.52
2023-01-29T10:21:41.426Z,1019.50
2023-01-29T10:22:41.411Z,1019.53
2023-01-29T10:23:41.399Z,1019.51
2023-01-29T10:24:41.401Z,1019.48
2023-01-29T10:25:41.406Z,1019.51
2023-01-29T10:26:41.497Z,1019.55
2023-01-29T10:27:41.408Z,1019.54
2023-01-29T10:28:41.373Z,1019.56
2023-01-29T10:29:41.372Z,1019.57
2023-01-29T10:30:41.458Z,1019.60
2023-01-29T10:31:41.547Z,1019.63
2023-01-29T10:32:41.400Z,1019.63
2023-01-29T10:33:59.458Z,1019.63
2023-01-29T10:34:41.353Z,1019.63
2023-01-29T10:35:41.345Z,1019.69
2023-01-29T10:36:41.331Z,1019.67
2023-01-29T10:37:41.335Z,1019.65
2023-01-29T10:38:41.339Z,1019.67
2023-01-29T10:39:41.330Z,1019.66
2023-01-29T10:40:41.306Z,1019.65
2023-01-29T10:41:41.309Z,1019.67
2023-01-29T10:42:41.301Z,1019.59
2023-01-29T10:43:41.295Z,1019.56
2023-01-29T10:44:41.296Z,1019.56
2023-01-29T10:45:41.283Z,1019.57
2023-01-29T10:46:41.277Z,1019.52
2023-01-29T10:47:41.362Z,1019.45
2023-01-29T10:48:41.279Z,1019.47
2023-01-29T10:49:41.294Z,1019.46
2023-01-29T10:50:41.262Z,1019.38
2023-01-29T10:51:41.253Z,1019.42
2023-01-29T10:52:41.243Z,1019.43
2023-01-29T10:53:41.245Z,1019.40
2023-01-29T10:54:41.239Z,1019.37
2023-01-29T10:55:41.243Z,1019.39
2023-01-29T10:56:41.222Z,1019.38
2023-01-29T10:57:41.222Z,1019.37
2023-01-29T10:58:41.226Z,1019.28
2023-01-29T10:59:41.213Z,1019.30
2023-01-29T11:00:41.199Z,1019.27
2023-01-29T11:01:41.258Z,1019.22
2023-01-29T11:02:41.262Z,1019.19
2023-01-29T11:03:41.247Z,1019.13
2023-01-29T11:04:41.177Z,1019.12
2023-01-29T11:05:41.176Z,1019.16
2023-01-29T11:06:41.169Z,1019.19
2023-01-29T11:07:41.166Z,1019.23
2023-01-29T11:08:41.167Z,1019.19
2023-01-29T11:09:41.161Z,1019.18
2023-01-29T11:10:41.151Z,1019.13
2023-01-29T11:11:41.149Z,1019.08
2023-01-29T11:12:41.145Z,1019.15
2023-01-29T11:13:41.135Z,1019.14
2023-01-29T11:14:41.131Z,1019.12
2023-01-29T11:15:41.126Z,1019.08
2023-01-29T11:16:41.160Z,1019.09
2023-01-29T11:17:42.302Z,1019.13
2023-01-29T11:18:41.103Z,1019.11
2023-01-29T11:19:41.115Z,1019.13
2023-01-29T11:20:41.095Z,1019.13
2023-01-29T11:21:41.099Z,1019.13
2023-01-29T11:22:41.095Z,1019.13
2023-01-29T11:23:41.087Z,1019.11
2023-01-29T11:24:41.080Z,1019.10
2023-01-29T11:25:41.075Z,1019.01
2023-01-29T11:26:41.160Z,1018.99
2023-01-29T11:27:41.067Z,1018.92
2023-01-29T11:28:41.058Z,1018.91
2023-01-29T11:29:41.206Z,1018.81
2023-01-29T11:30:41.098Z,1018.80
2023-01-29T11:31:41.103Z,1018.85
2023-01-29T11:32:41.044Z,1018.85
2023-01-29T11:33:41.065Z,1018.81
2023-01-29T11:34:41.080Z,1018.82
2023-01-29T11:35:41.029Z,1018.78
2023-01-29T11:36:41.026Z,1018.77
2023-01-29T11:37:41.033Z,1018.78
2023-01-29T11:38:41.019Z,1018.75
2023-01-29T11:39:41.020Z,1018.76
2023-01-29T11:40:41.040Z,1018.79
2023-01-29T11:41:41.048Z,1018.76
2023-01-29T11:42:40.997Z,1018.76
2023-01-29T11:43:41.020Z,1018.67
2023-01-29T11:44:40.983Z,1018.72
2023-01-29T11:45:40.987Z,1018.62
2023-01-29T11:46:41.059Z,1018.62
2023-01-29T11:47:40.975Z,1018.57
2023-01-29T11:48:40.981Z,1018.60
2023-01-29T11:49:40.974Z,1018.58
2023-01-29T11:50:40.955Z,1018.61
2023-01-29T11:51:40.974Z,1018.59
2023-01-29T11:52:40.998Z,1018.58
2023-01-29T11:53:40.980Z,1018.56
2023-01-29T11:54:40.949Z,1018.56
2023-01-29T11:55:50.089Z,1018.53
2023-01-29T11:56:40.934Z,1018.53
2023-01-29T11:57:40.925Z,1018.56
2023-01-29T11:58:40.925Z,1018.54
2023-01-29T11:59:40.932Z,1018.50
2023-01-29T12:00:40.921Z,1018.51
2023-01-29T12:01:40.906Z,1018.43
2023-01-29T12:02:40.898Z,1018.44
2023-01-29T12:03:40.955Z,1018.38
2023-01-29T12:04:40.899Z,1018.45
2023-01-29T12:05:40.931Z,1018.42
2023-01-29T12:06:40.895Z,1018.45